createdAt,value
2022-09-09T00:00:00.350Z,0.0
2022-09-09T00:05:00.340Z,2.5
2022-09-09T00:10:00.286Z,0.0
2022-09-09T00:15:00.409Z,0.0
2022-09-09T00:20:00.310Z,0.0
2022-09-09T00:25:00.316Z,0.0
2022-09-09T00:30:00.356Z,0.0
2022-09-09T00:35:00.311Z,2.9
2022-09-09T00:40:00.607Z,2.2
2022-09-09T00:45:00.325Z,0.0
2022-09-09T00:50:01.694Z,3.2
2022-09-09T00:55:00.316Z,2.2
2022-09-09T01:00:00.397Z,0.0
2022-09-09T01:05:00.306Z,0.0
2022-09-09T01:10:00.280Z,0.0
2022-09-09T01:15:00.325Z,0.0
2022-09-09T01:20:00.300Z,0.0
2022-09-09T01:25:00.353Z,0.0
2022-09-09T01:30:00.340Z,0.0
2022-09-09T01:35:00.374Z,0.0
2022-09-09T01:40:00.696Z,0.0
2022-09-09T01:45:00.330Z,0.0
2022-09-09T01:50:00.335Z,0.0
2022-09-09T01:55:00.306Z,0.0
2022-09-09T02:00:00.347Z,0.0
2022-09-09T02:05:00.315Z,0.0
2022-09-09T02:10:00.318Z,0.0
2022-09-09T02:15:00.299Z,0.0
2022-09-09T02:20:00.305Z,0.0
2022-09-09T02:25:00.351Z,0.0
2022-09-09T02:30:00.341Z,0.0
2022-09-09T02:35:00.370Z,0.0
2022-09-09T02:40:00.558Z,0.0
2022-09-09T02:45:00.283Z,0.0
2022-09-09T02:50:00.325Z,0.0
2022-09-09T02:55:00.346Z,0.0
2022-09-09T03:00:00.353Z,0.0
2022-09-09T03:05:00.325Z,0.0
2022-09-09T03:10:00.306Z,0.0
2022-09-09T03:15:00.397Z,0.0
2022-09-09T03:20:00.377Z,1.8
2022-09-09T03:25:00.354Z,0.0
2022-09-09T03:30:00.316Z,0.0
2022-09-09T03:35:00.325Z,0.0
2022-09-09T03:40:00.691Z,0.0
2022-09-09T03:45:00.347Z,0.0
2022-09-09T03:50:00.335Z,0.0
2022-09-09T03:55:00.307Z,0.0
2022-09-09T04:00:00.348Z,0.0
2022-09-09T04:05:00.329Z,0.0
2022-09-09T04:10:00.353Z,0.0
2022-09-09T04:15:00.324Z,0.0
2022-09-09T04:20:00.316Z,0.0
2022-09-09T04:25:00.321Z,0.0
2022-09-09T04:30:00.319Z,0.0
2022-09-09T04:35:00.326Z,0.0
2022-09-09T04:40:00.600Z,0.0
2022-09-09T04:45:00.334Z,0.0
2022-09-09T04:50:00.299Z,0.0
2022-09-09T04:55:00.303Z,0.0
2022-09-09T05:00:00.334Z,0.0
2022-09-09T05:05:00.335Z,0.0
2022-09-09T05:10:00.344Z,0.0
2022-09-09T05:15:00.319Z,0.0
2022-09-09T05:20:00.345Z,0.0
2022-09-09T05:25:00.331Z,1.8
2022-09-09T05:30:00.330Z,0.0
2022-09-09T05:35:00.330Z,0.0
2022-09-09T05:40:00.571Z,3.6
2022-09-09T05:45:00.339Z,0.0
2022-09-09T05:50:00.347Z,0.0
2022-09-09T05:55:00.379Z,2.9
2022-09-09T06:00:00.409Z,4.3
2022-09-09T06:05:01.005Z,1.4
2022-09-09T06:10:00.306Z,7.2
2022-09-09T06:15:00.342Z,0.0
2022-09-09T06:20:00.293Z,7.2
2022-09-09T06:25:00.478Z,8.3
2022-09-09T06:30:00.339Z,4.0
2022-09-09T06:35:00.330Z,3.6
2022-09-09T06:40:00.691Z,6.1
2022-09-09T06:45:00.368Z,4.7
2022-09-09T06:50:00.305Z,7.6
2022-09-09T06:55:00.344Z,4.0
2022-09-09T07:00:00.317Z,9.0
2022-09-09T07:05:00.333Z,7.6
2022-09-09T07:10:00.318Z,4.0
2022-09-09T07:15:00.354Z,2.5
2022-09-09T07:20:00.321Z,6.1
2022-09-09T07:25:00.347Z,3.2
2022-09-09T07:30:00.437Z,5.0
2022-09-09T07:35:00.354Z,10.1
2022-09-09T07:40:00.690Z,10.1
2022-09-09T07:45:00.365Z,9.4
2022-09-09T07:50:00.356Z,3.2
2022-09-09T07:55:01.849Z,5.8
2022-09-09T08:00:00.455Z,4.3
2022-09-09T08:05:00.376Z,8.6
2022-09-09T08:10:00.369Z,6.5
2022-09-09T08:15:00.381Z,9.4
2022-09-09T08:20:00.459Z,7.9
2022-09-09T08:25:00.368Z,10.1
2022-09-09T08:30:00.388Z,7.9
2022-09-09T08:35:01.845Z,7.9
2022-09-09T08:40:00.644Z,8.6
2022-09-09T08:45:00.406Z,5.8
2022-09-09T08:50:00.389Z,6.1
2022-09-09T08:55:00.362Z,9.7
2022-09-09T09:00:00.367Z,10.1
2022-09-09T09:05:00.722Z,9.7
2022-09-09T09:10:00.363Z,6.1
2022-09-09T09:15:00.364Z,7.2
2022-09-09T09:20:00.393Z,6.5
2022-09-09T09:25:00.331Z,12.2
2022-09-09T09:30:28.903Z,10.1
2022-09-09T09:35:00.380Z,10.4
2022-09-09T09:45:00.539Z,6.5
2022-09-09T09:50:00.529Z,4.3
2022-09-09T09:55:07.982Z,13.0
2022-09-09T10:00:00.444Z,6.1
2022-09-09T10:05:00.606Z,12.2
2022-09-09T10:10:00.405Z,9.4
2022-09-09T10:15:00.376Z,6.8
2022-09-09T10:20:00.436Z,5.4
2022-09-09T10:25:00.387Z,12.2
2022-09-09T10:30:00.374Z,13.0
2022-09-09T10:35:00.373Z,1.8
2022-09-09T10:40:00.639Z,10.4
2022-09-09T10:45:00.392Z,12.6
2022-09-09T10:50:00.468Z,5.8
2022-09-09T10:55:00.303Z,10.4
2022-09-09T11:00:00.331Z,3.2
2022-09-09T11:05:00.379Z,12.6
2022-09-09T11:10:00.409Z,8.6
2022-09-09T11:15:00.355Z,6.8
2022-09-09T11:20:00.386Z,6.5
2022-09-09T11:25:00.489Z,9.7
2022-09-09T11:30:00.502Z,6.5
2022-09-09T11:35:00.342Z,7.9
2022-09-09T11:40:00.651Z,2.2
2022-09-09T11:45:00.303Z,11.2
2022-09-09T11:50:00.306Z,11.5
2022-09-09T11:55:00.328Z,5.8
2022-09-09T12:00:00.336Z,8.6
2022-09-09T12:05:00.470Z,6.5
2022-09-09T12:10:00.345Z,10.1
2022-09-09T12:15:00.396Z,6.8
2022-09-09T12:20:00.319Z,1.4
2022-09-09T12:25:00.343Z,5.4
2022-09-09T12:30:00.309Z,9.7
2022-09-09T12:35:00.307Z,5.0
2022-09-09T12:40:00.620Z,11.2
2022-09-09T12:45:00.324Z,7.6
2022-09-09T12:50:00.327Z,10.8
2022-09-09T12:55:00.344Z,10.8
2022-09-09T13:00:00.320Z,7.2
2022-09-09T13:05:00.757Z,9.7
2022-09-09T13:10:00.303Z,14.8
2022-09-09T13:15:00.344Z,5.8
2022-09-09T13:20:00.403Z,8.3
2022-09-09T13:25:00.343Z,8.3
2022-09-09T13:30:00.591Z,4.0
2022-09-09T13:35:00.367Z,4.0
2022-09-09T13:40:00.922Z,5.0
2022-09-09T13:45:00.324Z,6.5
2022-09-09T13:50:00.336Z,4.7
2022-09-09T13:55:00.351Z,2.5
2022-09-09T14:00:06.922Z,1.8
2022-09-09T14:05:00.329Z,4.7
2022-09-09T14:10:00.283Z,4.3
2022-09-09T14:15:00.323Z,0.0
2022-09-09T14:20:00.338Z,1.4
2022-09-09T14:25:00.448Z,7.2
2022-09-09T14:30:00.334Z,5.8
2022-09-09T14:35:00.343Z,4.7
2022-09-09T14:40:00.614Z,6.1
2022-09-09T14:45:00.306Z,6.1
2022-09-09T14:50:00.309Z,4.7
2022-09-09T14:55:00.303Z,5.8
2022-09-09T15:00:00.286Z,5.0
2022-09-09T15:05:00.331Z,4.7
2022-09-09T15:10:00.313Z,4.3
2022-09-09T15:15:00.334Z,2.5
2022-09-09T15:20:00.327Z,3.6
2022-09-09T15:25:00.323Z,0.0
2022-09-09T15:30:00.349Z,2.5
2022-09-09T15:35:00.333Z,1.4
2022-09-09T15:40:00.540Z,0.0
2022-09-09T15:45:00.369Z,1.4
2022-09-09T15:50:00.349Z,0.0
2022-09-09T15:55:00.325Z,2.2
2022-09-09T16:00:00.295Z,1.8
2022-09-09T16:05:00.334Z,0.0
2022-09-09T16:10:00.351Z,1.8
2022-09-09T16:15:00.349Z,2.2
2022-09-09T16:20:00.312Z,2.5
2022-09-09T16:25:00.329Z,0.0
2022-09-09T16:30:00.269Z,0.0
2022-09-09T16:35:00.347Z,0.0
2022-09-09T16:40:00.646Z,0.0
2022-09-09T16:45:00.355Z,0.0
2022-09-09T16:50:00.341Z,0.0
2022-09-09T16:55:00.351Z,0.0
2022-09-09T17:00:00.480Z,1.4
2022-09-09T17:05:00.336Z,0.0
2022-09-09T17:10:00.308Z,0.0
2022-09-09T17:15:00.362Z,0.0
2022-09-09T17:20:00.376Z,0.0
2022-09-09T17:25:00.333Z,0.0
2022-09-09T17:30:00.299Z,0.0
2022-09-09T17:35:00.368Z,0.0
2022-09-09T17:40:00.708Z,0.0
2022-09-09T17:45:00.339Z,2.2
2022-09-09T17:50:00.349Z,1.4
2022-09-09T17:55:00.343Z,2.2
2022-09-09T18:00:00.328Z,0.0
2022-09-09T18:05:00.354Z,0.0
2022-09-09T18:10:00.344Z,0.0
2022-09-09T18:15:04.490Z,0.0
2022-09-09T18:20:00.328Z,0.0
2022-09-09T18:25:00.339Z,0.0
2022-09-09T18:30:00.382Z,0.0
2022-09-09T18:35:00.325Z,0.0
2022-09-09T18:40:00.528Z,3.6
2022-09-09T18:45:00.325Z,5.4
2022-09-09T18:50:00.406Z,0.0
2022-09-09T18:55:00.309Z,2.9
2022-09-09T19:00:00.356Z,2.2
2022-09-09T19:05:00.458Z,3.6
2022-09-09T19:10:00.483Z,0.0
2022-09-09T19:15:00.295Z,4.0
2022-09-09T19:20:00.318Z,2.2
2022-09-09T19:25:00.309Z,4.7
2022-09-09T19:30:00.363Z,9.4
2022-09-09T19:35:00.447Z,2.2
2022-09-09T19:40:00.645Z,7.2
2022-09-09T19:45:00.330Z,10.8
2022-09-09T19:50:00.347Z,4.7
2022-09-09T19:55:00.327Z,2.5
2022-09-09T20:00:00.347Z,7.2
2022-09-09T20:05:00.335Z,3.2
2022-09-09T20:10:00.494Z,4.0
2022-09-09T20:15:00.361Z,4.3
2022-09-09T20:20:00.423Z,5.8
2022-09-09T20:25:00.338Z,4.7
2022-09-09T20:30:00.567Z,7.2
2022-09-09T20:35:00.324Z,3.6
2022-09-09T20:40:00.662Z,6.5
2022-09-09T20:45:00.325Z,7.9
2022-09-09T20:50:00.370Z,11.5
2022-09-09T20:55:00.307Z,5.0
2022-09-09T21:00:00.348Z,0.0
2022-09-09T21:05:00.325Z,7.6
2022-09-09T21:10:00.323Z,4.3
2022-09-09T21:15:00.323Z,1.4
2022-09-09T21:20:00.374Z,2.5
2022-09-09T21:25:00.333Z,0.0
2022-09-09T21:30:00.414Z,0.0
2022-09-09T21:35:00.317Z,0.0
2022-09-09T21:40:00.583Z,1.1
2022-09-09T21:45:00.333Z,0.0
2022-09-09T21:50:00.351Z,0.0
2022-09-09T21:55:00.340Z,0.0
2022-09-09T22:00:00.447Z,2.5
2022-09-09T22:05:00.328Z,5.8
2022-09-09T22:10:00.357Z,3.2
2022-09-09T22:15:00.328Z,2.5
2022-09-09T22:20:00.350Z,4.0
2022-09-09T22:25:00.335Z,0.0
2022-09-09T22:30:00.389Z,0.0
2022-09-09T22:35:00.278Z,1.8
2022-09-09T22:40:00.586Z,1.8
2022-09-09T22:45:00.334Z,4.7
2022-09-09T22:50:00.307Z,3.6
2022-09-09T22:55:00.339Z,0.0
2022-09-09T23:00:00.307Z,1.4
2022-09-09T23:05:00.351Z,4.0
2022-09-09T23:10:00.394Z,3.6
2022-09-09T23:15:00.319Z,1.4
2022-09-09T23:20:00.279Z,0.0
2022-09-09T23:25:00.358Z,2.2
2022-09-09T23:30:00.331Z,0.0
2022-09-09T23:35:00.381Z,1.8
2022-09-09T23:40:00.582Z,2.9
2022-09-09T23:45:00.325Z,3.2
2022-09-09T23:50:00.337Z,4.0
2022-09-09T23:55:00.327Z,4.0
